createdAt,value
2023-01-17T00:02:02.873Z,97.10
2023-01-17T00:04:48.538Z,97.10
2023-01-17T00:07:34.440Z,97.20
2023-01-17T00:10:02.792Z,97.40
2023-01-17T00:12:30.492Z,97.40
2023-01-17T00:14:58.459Z,97.20
2023-01-17T00:17:25.913Z,97.50
2023-01-17T00:20:11.774Z,97.20
2023-01-17T00:22:59.754Z,97.20
2023-01-17T00:25:50.660Z,97.10
2023-01-17T00:28:36.376Z,97.20
2023-01-17T00:31:21.917Z,97.10
2023-01-17T00:34:07.465Z,97.10
2023-01-17T00:36:52.712Z,97.20
2023-01-17T00:39:38.166Z,97.20
2023-01-17T00:42:23.482Z,97.30
2023-01-17T00:45:08.944Z,97.30
2023-01-17T00:47:56.208Z,97.40
2023-01-17T00:50:42.339Z,97.30
2023-01-17T00:53:27.433Z,97.20
2023-01-17T00:56:12.595Z,97.30
2023-01-17T00:58:57.890Z,97.20
2023-01-17T01:01:43.231Z,97.10
2023-01-17T01:04:28.780Z,97.20
2023-01-17T01:07:14.013Z,97.10
2023-01-17T01:09:59.471Z,97.10
2023-01-17T01:12:44.658Z,97.10
2023-01-17T01:15:29.748Z,97.20
2023-01-17T01:18:15.153Z,97.40
2023-01-17T01:21:00.190Z,97.40
2023-01-17T01:23:45.345Z,97.40
2023-01-17T01:26:30.438Z,97.30
2023-01-17T01:29:15.858Z,97.40
2023-01-17T01:32:00.954Z,97.50
2023-01-17T01:34:27.673Z,97.40
2023-01-17T01:36:54.391Z,97.20
2023-01-17T01:39:21.111Z,97.20
2023-01-17T01:41:47.958Z,97.20
2023-01-17T01:44:44.181Z,97.20
2023-01-17T01:47:12.485Z,97.30
2023-01-17T01:49:39.331Z,97.20
2023-01-17T01:52:06.776Z,97.10
2023-01-17T01:55:02.808Z,97.10
2023-01-17T01:57:32.204Z,97.30
2023-01-17T02:00:02.075Z,97.30
2023-01-17T02:02:30.216Z,97.10
2023-01-17T02:04:57.526Z,97.50
2023-01-17T02:07:28.759Z,97.20
2023-01-17T02:09:55.526Z,97.20
2023-01-17T02:12:22.287Z,97.10
2023-01-17T02:14:49.007Z,97.20
2023-01-17T02:17:20.560Z,97.20
2023-01-17T02:19:47.230Z,97.40
2023-01-17T02:22:16.913Z,97.20
2023-01-17T02:24:52.933Z,97.20
2023-01-17T02:27:27.199Z,97.40
2023-01-17T02:30:00.184Z,97.40
2023-01-17T02:32:33.131Z,97.50
2023-01-17T02:35:00.585Z,97.40
2023-01-17T02:37:46.118Z,97.50
2023-01-17T02:40:23.080Z,97.50
2023-01-17T02:42:52.946Z,97.30
2023-01-17T02:45:20.398Z,97.20
2023-01-17T02:47:47.451Z,97.20
2023-01-17T02:50:17.380Z,97.20
2023-01-17T02:53:02.883Z,97.40
2023-01-17T02:55:38.923Z,97.50
2023-01-17T02:58:16.898Z,97.50
2023-01-17T03:00:52.922Z,97.40
2023-01-17T03:03:40.331Z,97.30
2023-01-17T03:06:25.878Z,97.20
2023-01-17T03:08:53.356Z,97.10
2023-01-17T03:11:20.323Z,97.10
2023-01-17T03:13:47.167Z,97.20
2023-01-17T03:16:24.086Z,97.20
2023-01-17T03:18:57.567Z,97.30
2023-01-17T03:21:24.433Z,97.30
2023-01-17T03:23:51.451Z,97.10
2023-01-17T03:26:18.247Z,97.20
2023-01-17T03:28:45.069Z,97.20
2023-01-17T03:31:15.192Z,97.20
2023-01-17T03:33:41.927Z,97.40
2023-01-17T03:36:08.809Z,97.40
2023-01-17T03:38:37.336Z,97.30
2023-01-17T03:41:04.655Z,97.30
2023-01-17T03:43:31.479Z,97.40
2023-01-17T03:46:08.385Z,97.30
2023-01-17T03:48:35.227Z,97.20
2023-01-17T03:51:01.951Z,97.50
2023-01-17T03:53:28.641Z,97.20
2023-01-17T03:55:55.400Z,97.20
2023-01-17T03:58:22.125Z,97.20
2023-01-17T04:00:48.874Z,97.20
2023-01-17T04:03:15.652Z,97.20
2023-01-17T04:05:42.393Z,97.30
2023-01-17T04:08:09.141Z,97.30
2023-01-17T04:10:35.937Z,97.20
2023-01-17T04:13:02.718Z,97.40
2023-01-17T04:15:29.549Z,97.30
2023-01-17T04:17:56.573Z,97.30
2023-01-17T04:20:31.033Z,97.30
2023-01-17T04:22:57.891Z,97.30
2023-01-17T04:25:25.786Z,97.20
2023-01-17T04:27:53.009Z,97.30
2023-01-17T04:30:19.903Z,97.40
2023-01-17T04:32:46.650Z,97.40
2023-01-17T04:35:13.393Z,97.40
2023-01-17T04:37:40.178Z,97.20
2023-01-17T04:40:07.304Z,97.10
2023-01-17T04:42:34.103Z,97.00
2023-01-17T04:45:00.985Z,96.90
2023-01-17T04:47:27.804Z,96.90
2023-01-17T04:49:54.561Z,97.00
2023-01-17T04:52:21.540Z,97.10
2023-01-17T04:54:50.935Z,97.00
2023-01-17T04:57:18.116Z,97.10
2023-01-17T04:59:45.264Z,97.20
2023-01-17T05:02:12.589Z,97.20
2023-01-17T05:04:39.353Z,97.30
2023-01-17T05:07:06.915Z,97.30
2023-01-17T05:09:33.692Z,97.30
2023-01-17T05:12:00.364Z,97.30
2023-01-17T05:14:27.238Z,97.30
2023-01-17T05:16:54.290Z,97.20
2023-01-17T05:19:21.213Z,97.20
2023-01-17T05:21:48.058Z,97.50
2023-01-17T05:24:14.868Z,97.30
2023-01-17T05:26:43.153Z,97.20
2023-01-17T05:29:10.222Z,97.20
2023-01-17T05:31:37.354Z,97.20
2023-01-17T05:34:04.387Z,97.20
2023-01-17T05:36:31.110Z,97.20
2023-01-17T05:38:57.887Z,97.20
2023-01-17T05:41:24.617Z,97.10
2023-01-17T05:43:51.404Z,97.20
2023-01-17T05:46:25.543Z,97.20
2023-01-17T05:48:52.461Z,97.20
2023-01-17T05:51:19.176Z,97.20
2023-01-17T05:53:45.887Z,97.30
2023-01-17T05:56:12.662Z,97.30
2023-01-17T05:58:40.089Z,97.30
2023-01-17T06:01:06.875Z,97.30
2023-01-17T06:03:33.738Z,97.10
2023-01-17T06:06:00.438Z,97.20
2023-01-17T06:08:27.124Z,97.20
2023-01-17T06:10:53.936Z,97.10
2023-01-17T06:13:23.654Z,97.10
2023-01-17T06:15:50.398Z,97.20
2023-01-17T06:18:17.836Z,97.10
2023-01-17T06:20:44.807Z,97.00
2023-01-17T06:23:12.666Z,97.00
2023-01-17T06:25:40.698Z,96.90
2023-01-17T06:28:07.656Z,96.90
2023-01-17T06:30:34.370Z,96.90
2023-01-17T06:33:01.245Z,97.00
2023-01-17T06:35:28.196Z,97.00
2023-01-17T06:37:55.584Z,97.00
2023-01-17T06:40:22.652Z,97.00
2023-01-17T06:42:49.388Z,96.90
2023-01-17T06:45:16.250Z,97.00
2023-01-17T06:47:43.197Z,96.90
2023-01-17T06:50:12.359Z,96.90
2023-01-17T06:52:39.392Z,96.90
2023-01-17T06:55:06.801Z,97.00
2023-01-17T06:57:33.685Z,96.90
2023-01-17T07:00:00.439Z,97.00
2023-01-17T07:02:27.204Z,97.00
2023-01-17T07:04:53.931Z,96.90
2023-01-17T07:07:20.647Z,96.80
2023-01-17T07:09:47.399Z,96.90
2023-01-17T07:12:14.303Z,96.90
2023-01-17T07:14:41.023Z,96.90
2023-01-17T07:17:07.813Z,96.90
2023-01-17T07:19:34.540Z,96.90
2023-01-17T07:22:01.259Z,96.90
2023-01-17T07:24:28.002Z,96.90
2023-01-17T07:26:54.710Z,96.90
2023-01-17T07:29:21.400Z,96.90
2023-01-17T07:31:48.879Z,96.80
2023-01-17T07:34:15.662Z,96.90
2023-01-17T07:36:42.404Z,96.80
2023-01-17T07:39:09.842Z,96.90
2023-01-17T07:41:41.373Z,96.80
2023-01-17T07:44:10.133Z,96.80
2023-01-17T07:46:36.922Z,96.90
2023-01-17T07:49:03.768Z,96.90
2023-01-17T07:51:30.520Z,97.00
2023-01-17T07:53:57.240Z,96.90
2023-01-17T07:56:24.398Z,96.90
2023-01-17T07:58:51.205Z,96.80
2023-01-17T08:01:18.075Z,96.80
2023-01-17T08:03:45.495Z,96.90
2023-01-17T08:06:18.067Z,96.90
2023-01-17T08:08:44.902Z,96.80
2023-01-17T08:11:11.665Z,96.80
2023-01-17T08:13:38.455Z,96.80
2023-01-17T08:16:05.406Z,96.80
2023-01-17T08:18:32.124Z,96.90
2023-01-17T08:20:58.924Z,96.90
2023-01-17T08:23:25.723Z,96.90
2023-01-17T08:25:52.449Z,96.80
2023-01-17T08:28:19.940Z,96.90
2023-01-17T08:30:46.741Z,96.90
2023-01-17T08:33:13.441Z,96.90
2023-01-17T08:35:41.492Z,96.90
2023-01-17T08:38:09.029Z,97.00
2023-01-17T08:40:35.800Z,96.80
2023-01-17T08:43:03.928Z,96.80
2023-01-17T08:45:30.654Z,97.00
2023-01-17T08:47:58.121Z,97.10
2023-01-17T08:50:26.099Z,97.00
2023-01-17T08:52:58.372Z,97.00
2023-01-17T08:55:26.476Z,97.00
2023-01-17T08:57:56.106Z,97.00
2023-01-17T09:00:22.876Z,97.00
2023-01-17T09:02:51.596Z,97.00
2023-01-17T09:05:18.293Z,97.00
2023-01-17T09:07:44.983Z,96.90
2023-01-17T09:10:11.875Z,96.90
2023-01-17T09:12:40.279Z,96.90
2023-01-17T09:15:07.377Z,97.00
2023-01-17T09:17:36.162Z,97.00
2023-01-17T09:20:02.963Z,96.90
2023-01-17T09:22:29.664Z,97.00
2023-01-17T09:24:56.505Z,96.90
2023-01-17T09:27:23.216Z,97.00
2023-01-17T09:29:49.979Z,97.00
2023-01-17T09:32:17.265Z,97.00
2023-01-17T09:34:44.436Z,97.00
2023-01-17T09:37:11.125Z,97.10
2023-01-17T09:39:37.935Z,97.20
2023-01-17T09:42:23.149Z,97.40
2023-01-17T09:44:54.400Z,97.30
2023-01-17T09:47:24.203Z,97.30
2023-01-17T09:49:55.555Z,97.20
2023-01-17T09:52:23.735Z,97.10
2023-01-17T09:54:51.185Z,97.00
2023-01-17T09:57:26.012Z,97.00
2023-01-17T10:00:03.164Z,97.00
2023-01-17T10:02:45.747Z,96.90
2023-01-17T10:05:27.781Z,96.90
2023-01-17T10:08:04.702Z,97.00
2023-01-17T10:10:37.406Z,97.00
2023-01-17T10:13:14.751Z,97.00
2023-01-17T10:15:53.671Z,97.30
2023-01-17T10:18:39.235Z,97.00
2023-01-17T10:21:12.443Z,96.90
2023-01-17T10:23:39.203Z,96.90
2023-01-17T10:26:09.342Z,97.10
2023-01-17T10:28:38.957Z,97.20
2023-01-17T10:31:12.231Z,97.30
2023-01-17T10:33:49.138Z,97.30
2023-01-17T10:36:20.511Z,97.30
2023-01-17T10:38:48.857Z,97.40
2023-01-17T10:41:18.597Z,97.40
2023-01-17T10:43:45.498Z,97.40
2023-01-17T10:46:17.455Z,97.30
2023-01-17T10:48:46.501Z,97.30
2023-01-17T10:51:30.717Z,97.20
2023-01-17T10:54:12.794Z,97.30
2023-01-17T10:56:40.674Z,97.30
2023-01-17T10:59:08.313Z,97.40
2023-01-17T11:01:35.212Z,97.40
2023-01-17T11:04:02.319Z,97.50
2023-01-17T11:06:29.137Z,97.50
2023-01-17T11:09:00.034Z,97.40
2023-01-17T11:11:31.917Z,97.50
2023-01-17T11:14:00.908Z,97.40
2023-01-17T11:16:29.647Z,97.20
2023-01-17T11:19:06.911Z,97.20
2023-01-17T11:21:33.855Z,97.10
2023-01-17T11:24:08.925Z,97.20
2023-01-17T11:26:36.477Z,97.20
2023-01-17T11:29:21.872Z,97.20
2023-01-17T11:31:48.576Z,97.20
2023-01-17T11:34:24.552Z,97.10
2023-01-17T11:37:09.498Z,97.10
2023-01-17T11:39:36.267Z,97.10
2023-01-17T11:42:05.498Z,97.00
2023-01-17T11:44:33.567Z,97.00
2023-01-17T11:47:12.353Z,97.00
2023-01-17T11:49:42.826Z,97.00
2023-01-17T11:52:09.520Z,97.00
2023-01-17T11:54:40.487Z,97.20
2023-01-17T11:57:16.650Z,97.30
2023-01-17T11:59:43.904Z,97.40
2023-01-17T12:02:31.762Z,97.40
2023-01-17T12:05:18.436Z,97.50
2023-01-17T12:07:52.893Z,97.50
2023-01-17T12:10:31.285Z,97.40
2023-01-17T12:13:28.910Z,97.30
2023-01-17T12:16:26.323Z,97.30
2023-01-17T12:19:13.264Z,97.30
2023-01-17T12:21:58.897Z,97.20
2023-01-17T12:24:25.609Z,97.30
2023-01-17T12:26:58.983Z,97.30
2023-01-17T12:29:32.060Z,97.30
2023-01-17T12:32:01.929Z,97.40
2023-01-17T12:34:39.603Z,97.20
2023-01-17T12:37:18.061Z,97.20
2023-01-17T12:39:49.285Z,97.20
2023-01-17T12:42:21.145Z,97.20
2023-01-17T12:44:51.732Z,97.30
2023-01-17T12:47:19.717Z,97.30
2023-01-17T12:49:49.517Z,97.20
2023-01-17T12:52:34.968Z,97.20
2023-01-17T12:55:12.344Z,97.20
2023-01-17T12:57:41.930Z,97.30
2023-01-17T13:00:20.059Z,97.40
2023-01-17T13:03:05.631Z,97.30
2023-01-17T13:05:35.768Z,97.20
2023-01-17T13:08:13.438Z,97.20
2023-01-17T13:11:06.521Z,97.20
2023-01-17T13:13:35.653Z,97.20
2023-01-17T13:16:10.613Z,97.40
2023-01-17T13:18:39.268Z,97.30
2023-01-17T13:21:06.173Z,97.40
2023-01-17T13:23:42.159Z,97.40
2023-01-17T13:26:27.549Z,97.40
2023-01-17T13:29:14.648Z,97.40
2023-01-17T13:31:48.248Z,97.50
2023-01-17T13:34:41.650Z,97.60
2023-01-17T13:37:14.201Z,97.60
2023-01-17T13:39:40.856Z,97.50
2023-01-17T13:42:16.710Z,97.40
2023-01-17T13:44:43.556Z,97.30
2023-01-17T13:47:10.227Z,97.20
2023-01-17T13:49:45.203Z,97.10
2023-01-17T13:52:20.991Z,97.20
2023-01-17T13:54:50.854Z,97.30
2023-01-17T13:57:24.670Z,97.50
2023-01-17T13:59:55.572Z,97.50
2023-01-17T14:02:38.208Z,97.50
2023-01-17T14:05:23.224Z,97.50
2023-01-17T14:07:58.756Z,97.50
2023-01-17T14:10:42.568Z,97.50
2023-01-17T14:13:28.547Z,97.50
2023-01-17T14:15:55.359Z,97.50
2023-01-17T14:18:41.689Z,97.50
2023-01-17T14:21:25.141Z,97.40
2023-01-17T14:23:57.234Z,97.40
2023-01-17T14:26:32.175Z,97.20
2023-01-17T14:29:18.784Z,97.10
2023-01-17T14:31:45.583Z,97.10
2023-01-17T14:34:13.304Z,97.10
2023-01-17T14:36:40.064Z,97.30
2023-01-17T14:39:20.414Z,97.10
2023-01-17T14:41:47.147Z,97.20
2023-01-17T14:44:13.846Z,97.20
2023-01-17T14:46:40.730Z,97.10
2023-01-17T14:49:18.405Z,97.20
2023-01-17T14:51:57.752Z,97.20
2023-01-17T14:54:24.500Z,97.10
2023-01-17T14:56:51.275Z,97.10
2023-01-17T14:59:22.194Z,97.00
2023-01-17T15:02:06.253Z,97.00
2023-01-17T15:04:39.294Z,97.00
2023-01-17T15:07:06.833Z,97.10
2023-01-17T15:09:35.390Z,97.00
2023-01-17T15:12:02.839Z,97.10
2023-01-17T15:14:32.358Z,97.10
2023-01-17T15:17:19.419Z,97.20
2023-01-17T15:19:50.193Z,97.20
2023-01-17T15:22:18.478Z,97.20
2023-01-17T15:24:46.577Z,97.20
2023-01-17T15:27:14.646Z,97.20
2023-01-17T15:29:41.857Z,97.10
2023-01-17T15:32:16.920Z,97.00
2023-01-17T15:34:44.604Z,97.10
2023-01-17T15:37:49.892Z,97.00
2023-01-17T15:40:18.681Z,97.20
2023-01-17T15:43:03.172Z,97.00
2023-01-17T15:45:31.024Z,97.10
2023-01-17T15:47:59.304Z,97.00
2023-01-17T15:50:30.378Z,97.10
2023-01-17T15:52:58.475Z,97.10
2023-01-17T15:55:29.452Z,97.10
2023-01-17T15:57:56.217Z,97.20
2023-01-17T16:00:26.218Z,97.10
2023-01-17T16:02:57.794Z,97.10
2023-01-17T16:05:24.687Z,97.20
2023-01-17T16:07:55.348Z,97.10
2023-01-17T16:10:23.464Z,97.10
2023-01-17T16:12:51.472Z,97.20
2023-01-17T16:15:18.811Z,97.20
2023-01-17T16:17:47.602Z,97.10
2023-01-17T16:20:16.008Z,97.10
2023-01-17T16:22:43.943Z,97.10
2023-01-17T16:25:36.724Z,97.10
2023-01-17T16:28:03.577Z,97.10
2023-01-17T16:30:30.324Z,97.10
2023-01-17T16:32:57.506Z,97.10
2023-01-17T16:35:25.934Z,97.20
2023-01-17T16:37:54.606Z,97.10
2023-01-17T16:40:22.934Z,97.10
2023-01-17T16:42:49.731Z,97.10
2023-01-17T16:45:16.823Z,97.10
2023-01-17T16:47:45.083Z,97.10
2023-01-17T16:50:12.797Z,97.10
2023-01-17T16:52:40.183Z,97.10
2023-01-17T16:55:08.781Z,97.10
2023-01-17T16:57:36.503Z,97.20
2023-01-17T17:00:04.212Z,97.10
2023-01-17T17:02:31.106Z,97.10
2023-01-17T17:04:57.847Z,97.20
2023-01-17T17:07:24.652Z,97.20
2023-01-17T17:09:51.486Z,97.20
2023-01-17T17:12:18.146Z,97.20
2023-01-17T17:14:44.859Z,97.10
2023-01-17T17:17:11.693Z,97.10
2023-01-17T17:19:38.400Z,97.40
2023-01-17T17:22:06.680Z,97.10
2023-01-17T17:24:33.720Z,97.00
2023-01-17T17:27:00.498Z,97.10
2023-01-17T17:29:27.223Z,97.10
2023-01-17T17:31:54.114Z,97.20
2023-01-17T17:34:22.379Z,97.10
2023-01-17T17:36:49.087Z,97.10
2023-01-17T17:39:16.007Z,97.10
2023-01-17T17:41:43.544Z,97.10
2023-01-17T17:44:10.255Z,97.10
2023-01-17T17:46:37.430Z,97.10
2023-01-17T17:49:05.875Z,97.00
2023-01-17T17:51:32.553Z,97.10
2023-01-17T17:54:03.926Z,97.20
2023-01-17T17:56:32.054Z,97.30
2023-01-17T17:58:59.682Z,97.20
2023-01-17T18:01:26.885Z,97.20
2023-01-17T18:03:55.141Z,97.20
2023-01-17T18:06:22.257Z,97.20
2023-01-17T18:08:49.493Z,97.20
2023-01-17T18:11:19.094Z,97.20
2023-01-17T18:13:52.994Z,97.10
2023-01-17T18:16:23.945Z,97.00
2023-01-17T18:18:52.218Z,97.10
2023-01-17T18:21:26.341Z,97.10
2023-01-17T18:23:54.686Z,97.00
2023-01-17T18:26:32.240Z,97.00
2023-01-17T18:28:59.748Z,97.10
2023-01-17T18:31:27.536Z,97.10
2023-01-17T18:33:55.269Z,97.10
2023-01-17T18:36:23.552Z,97.10
2023-01-17T18:38:50.799Z,97.20
2023-01-17T18:41:19.369Z,97.10
2023-01-17T18:43:46.746Z,97.10
2023-01-17T18:46:14.579Z,97.10
2023-01-17T18:48:41.801Z,97.00
2023-01-17T18:51:10.176Z,97.00
2023-01-17T18:53:37.671Z,97.10
2023-01-17T18:56:06.125Z,97.20
2023-01-17T18:58:35.394Z,97.30
2023-01-17T19:01:10.193Z,97.10
2023-01-17T19:03:37.899Z,97.20
2023-01-17T19:06:05.900Z,97.20
2023-01-17T19:08:33.347Z,97.10
2023-01-17T19:11:00.932Z,97.10
2023-01-17T19:13:28.108Z,97.20
2023-01-17T19:15:58.715Z,97.20
2023-01-17T19:18:25.570Z,97.20
2023-01-17T19:20:52.273Z,97.10
2023-01-17T19:23:18.974Z,97.10
2023-01-17T19:25:45.772Z,97.10
2023-01-17T19:28:12.459Z,97.10
2023-01-17T19:30:40.054Z,97.10
2023-01-17T19:33:06.851Z,97.10
2023-01-17T19:35:33.536Z,97.10
2023-01-17T19:38:00.222Z,97.00
2023-01-17T19:40:27.160Z,97.10
2023-01-17T19:42:53.824Z,97.10
2023-01-17T19:45:20.554Z,97.10
2023-01-17T19:47:47.419Z,97.10
2023-01-17T19:50:14.866Z,97.20
2023-01-17T19:52:44.280Z,97.10
2023-01-17T19:55:11.158Z,97.10
2023-01-17T19:57:40.529Z,97.20
2023-01-17T20:00:13.050Z,97.20
2023-01-17T20:02:40.191Z,97.20
2023-01-17T20:05:07.105Z,97.30
2023-01-17T20:07:34.193Z,97.20
2023-01-17T20:10:01.030Z,97.20
2023-01-17T20:12:27.727Z,97.20
2023-01-17T20:14:54.553Z,97.20
2023-01-17T20:17:21.304Z,97.20
2023-01-17T20:19:48.125Z,97.20
2023-01-17T20:22:14.835Z,97.10
2023-01-17T20:24:41.644Z,97.10
2023-01-17T20:27:08.336Z,97.10
2023-01-17T20:29:35.224Z,97.10
2023-01-17T20:32:02.033Z,97.20
2023-01-17T20:34:28.858Z,97.10
2023-01-17T20:36:57.691Z,97.10
2023-01-17T20:39:24.556Z,97.10
2023-01-17T20:41:52.114Z,97.10
2023-01-17T20:44:19.688Z,97.10
2023-01-17T20:46:47.821Z,97.20
2023-01-17T20:49:16.049Z,97.10
2023-01-17T20:51:44.539Z,97.10
2023-01-17T20:54:18.378Z,97.10
2023-01-17T20:56:47.417Z,97.20
2023-01-17T20:59:15.898Z,97.30
2023-01-17T21:01:43.836Z,97.20
2023-01-17T21:04:10.853Z,97.20
2023-01-17T21:06:38.810Z,97.20
2023-01-17T21:09:07.388Z,97.20
2023-01-17T21:11:34.582Z,97.20
2023-01-17T21:14:01.686Z,97.20
2023-01-17T21:16:28.868Z,97.30
2023-01-17T21:18:55.811Z,97.10
2023-01-17T21:21:23.917Z,97.10
2023-01-17T21:23:51.383Z,97.30
2023-01-17T21:26:19.086Z,97.30
2023-01-17T21:28:46.693Z,97.30
2023-01-17T21:31:23.369Z,97.20
2023-01-17T21:33:53.203Z,97.20
2023-01-17T21:36:20.757Z,97.20
2023-01-17T21:38:52.137Z,97.10
2023-01-17T21:41:22.945Z,97.10
2023-01-17T21:43:53.499Z,97.10
2023-01-17T21:46:20.262Z,97.10
2023-01-17T21:48:47.229Z,97.10
2023-01-17T21:51:14.176Z,97.20
2023-01-17T21:53:40.898Z,97.10
2023-01-17T21:56:27.028Z,97.10
2023-01-17T21:58:55.358Z,97.20
2023-01-17T22:01:23.349Z,97.20
2023-01-17T22:03:53.195Z,97.10
2023-01-17T22:06:20.850Z,97.10
2023-01-17T22:08:47.765Z,97.20
2023-01-17T22:11:16.388Z,97.20
2023-01-17T22:13:43.863Z,97.20
2023-01-17T22:16:11.952Z,97.10
2023-01-17T22:18:41.554Z,97.20
2023-01-17T22:21:10.642Z,97.20
2023-01-17T22:23:37.544Z,97.10
2023-01-17T22:26:05.305Z,97.30
2023-01-17T22:28:32.376Z,97.20
2023-01-17T22:31:05.666Z,97.10
2023-01-17T22:33:32.423Z,97.20
2023-01-17T22:35:59.374Z,97.20
2023-01-17T22:38:26.114Z,97.10
2023-01-17T22:40:52.792Z,97.20
2023-01-17T22:43:19.524Z,97.20
2023-01-17T22:45:46.656Z,97.10
2023-01-17T22:48:13.361Z,97.20
2023-01-17T22:50:40.072Z,97.10
2023-01-17T22:53:06.828Z,97.10
2023-01-17T22:55:33.515Z,97.20
2023-01-17T22:58:00.204Z,97.20
2023-01-17T23:00:26.958Z,97.30
2023-01-17T23:02:53.773Z,97.20
2023-01-17T23:05:20.462Z,97.10
2023-01-17T23:07:49.277Z,97.20
2023-01-17T23:10:36.163Z,97.20
2023-01-17T23:13:03.051Z,97.40
2023-01-17T23:15:48.203Z,97.40
2023-01-17T23:18:33.398Z,97.30
2023-01-17T23:21:00.094Z,97.30
2023-01-17T23:23:26.751Z,97.30
2023-01-17T23:25:59.177Z,97.40
2023-01-17T23:28:25.832Z,97.50
2023-01-17T23:30:52.492Z,97.40
2023-01-17T23:33:19.238Z,97.40
2023-01-17T23:35:46.537Z,97.50
2023-01-17T23:38:26.280Z,97.40
2023-01-17T23:41:11.727Z,97.20
2023-01-17T23:43:38.447Z,97.20
2023-01-17T23:46:05.405Z,97.20
2023-01-17T23:48:32.124Z,97.20
2023-01-17T23:50:59.979Z,97.20
2023-01-17T23:53:27.404Z,97.30
2023-01-17T23:55:55.301Z,97.20
2023-01-17T23:58:26.324Z,97.30
